createdAt,value
2022-07-25T00:00:15.356Z,101312.38
2022-07-25T00:02:44.119Z,101316.81
2022-07-25T00:05:12.949Z,101311.16
2022-07-25T00:07:41.024Z,101305.50
2022-07-25T00:10:09.991Z,101302.78
2022-07-25T00:12:37.978Z,101304.47
2022-07-25T00:15:07.155Z,101293.75
2022-07-25T00:17:36.461Z,101299.84
2022-07-25T00:20:05.820Z,101294.09
2022-07-25T00:22:33.820Z,101292.38
2022-07-25T00:25:01.938Z,101289.84
2022-07-25T00:27:29.873Z,101287.34
2022-07-25T00:29:57.844Z,101281.56
2022-07-25T00:32:25.774Z,101277.53
2022-07-25T00:34:55.061Z,101280.66
2022-07-25T00:37:26.315Z,101281.28
2022-07-25T00:39:54.261Z,101287.31
2022-07-25T00:42:24.139Z,101283.84
2022-07-25T00:44:52.580Z,101284.00
2022-07-25T00:47:20.563Z,101273.88
2022-07-25T00:49:48.766Z,101273.56
2022-07-25T00:52:18.109Z,101274.59
2022-07-25T00:54:46.073Z,101270.00
2022-07-25T00:57:14.001Z,101272.94
2022-07-25T00:59:42.037Z,101257.75
2022-07-25T01:02:10.018Z,101264.63
2022-07-25T01:04:37.959Z,101260.84
2022-07-25T01:07:06.191Z,101260.59
2022-07-25T01:09:35.572Z,101267.25
2022-07-25T01:12:03.567Z,101263.50
2022-07-25T01:14:31.766Z,101253.84
2022-07-25T01:16:59.701Z,101255.88
2022-07-25T01:19:27.663Z,101257.41
2022-07-25T01:21:56.944Z,101252.88
2022-07-25T01:24:24.943Z,101252.31
2022-07-25T01:26:52.947Z,101249.53
2022-07-25T01:29:20.894Z,101252.66
2022-07-25T01:31:48.835Z,101246.50
2022-07-25T01:34:16.807Z,101248.38
2022-07-25T01:36:44.740Z,101243.00
2022-07-25T01:39:14.091Z,101235.44
2022-07-25T01:41:42.061Z,101240.56
2022-07-25T01:44:10.378Z,101236.63
2022-07-25T01:46:38.476Z,101230.59
2022-07-25T01:49:06.592Z,101234.34
2022-07-25T01:51:34.680Z,101229.06
2022-07-25T01:54:02.849Z,101228.13
2022-07-25T01:56:33.977Z,101227.72
2022-07-25T01:59:01.884Z,101220.78
2022-07-25T02:01:29.874Z,101217.41
2022-07-25T02:03:57.871Z,101217.41
2022-07-25T02:06:25.803Z,101212.22
2022-07-25T02:08:53.780Z,101216.38
2022-07-25T02:11:21.823Z,101213.47
2022-07-25T02:13:51.293Z,101207.94
2022-07-25T02:16:19.429Z,101203.03
2022-07-25T02:18:57.502Z,101213.66
2022-07-25T02:21:26.012Z,101207.41
2022-07-25T02:23:54.332Z,101201.75
2022-07-25T02:26:22.293Z,101204.41
2022-07-25T02:28:54.301Z,101195.91
2022-07-25T02:31:22.326Z,101197.91
2022-07-25T02:33:50.321Z,101192.16
2022-07-25T02:36:18.405Z,101186.84
2022-07-25T02:38:46.466Z,101183.97
2022-07-25T02:41:14.422Z,101180.50
2022-07-25T02:43:42.366Z,101180.91
2022-07-25T02:46:11.930Z,101176.56
2022-07-25T02:48:39.988Z,101178.63
2022-07-25T02:51:08.221Z,101174.03
2022-07-25T02:53:56.216Z,101168.50
2022-07-25T02:56:24.058Z,101164.88
2022-07-25T02:58:52.499Z,101160.81
2022-07-25T03:01:21.865Z,101170.50
2022-07-25T03:03:49.882Z,101172.13
2022-07-25T03:06:18.230Z,101159.78
2022-07-25T03:08:46.129Z,101164.06
2022-07-25T03:11:14.716Z,101162.63
2022-07-25T03:13:42.686Z,101164.56
2022-07-25T03:16:11.161Z,101152.94
2022-07-25T03:18:40.487Z,101156.47
2022-07-25T03:21:08.930Z,101147.38
2022-07-25T03:23:36.952Z,101143.56
2022-07-25T03:26:05.153Z,101149.00
2022-07-25T03:28:33.081Z,101139.44
2022-07-25T03:31:01.105Z,101139.22
2022-07-25T03:33:29.106Z,101134.06
2022-07-25T03:35:58.426Z,101139.28
2022-07-25T03:38:26.395Z,101129.34
2022-07-25T03:40:54.338Z,101132.66
2022-07-25T03:43:22.293Z,101128.75
2022-07-25T03:45:50.322Z,101126.72
2022-07-25T03:48:18.233Z,101128.75
2022-07-25T03:50:46.238Z,101126.94
2022-07-25T03:53:16.517Z,101118.38
2022-07-25T03:55:44.468Z,101122.22
2022-07-25T03:58:12.401Z,101125.97
2022-07-25T04:00:40.364Z,101125.00
2022-07-25T04:03:08.354Z,101110.72
2022-07-25T04:05:36.300Z,101119.06
2022-07-25T04:08:04.333Z,101110.19
2022-07-25T04:10:34.384Z,101108.28
2022-07-25T04:13:03.501Z,101114.47
2022-07-25T04:15:31.531Z,101105.63
2022-07-25T04:17:59.504Z,101100.59
2022-07-25T04:20:28.606Z,101111.63
2022-07-25T04:22:57.364Z,101112.53
2022-07-25T04:25:25.255Z,101105.94
2022-07-25T04:27:54.590Z,101102.19
2022-07-25T04:30:23.835Z,101096.16
2022-07-25T04:32:53.182Z,101098.97
2022-07-25T04:35:21.288Z,101099.78
2022-07-25T04:37:49.322Z,101094.56
2022-07-25T04:40:17.228Z,101087.94
2022-07-25T04:43:11.692Z,101074.84
2022-07-25T04:45:40.855Z,101072.50
2022-07-25T04:48:09.409Z,101060.75
2022-07-25T04:50:37.377Z,101059.50
2022-07-25T04:53:05.601Z,101048.84
2022-07-25T04:55:33.855Z,101045.19
2022-07-25T04:58:01.830Z,101039.25
2022-07-25T05:00:31.635Z,101032.47
2022-07-25T05:03:00.018Z,101029.84
2022-07-25T05:05:28.007Z,101027.50
2022-07-25T05:07:57.970Z,101032.00
2022-07-25T05:10:26.173Z,101034.63
2022-07-25T05:12:54.163Z,101031.13
2022-07-25T05:15:22.505Z,101022.41
2022-07-25T05:17:51.816Z,101012.00
2022-07-25T05:20:19.870Z,101022.41
2022-07-25T05:22:47.936Z,101014.91
2022-07-25T05:25:15.976Z,101018.47
2022-07-25T05:27:43.881Z,101014.31
2022-07-25T05:30:13.555Z,101006.47
2022-07-25T05:32:42.622Z,101011.69
2022-07-25T05:35:12.174Z,100997.28
2022-07-25T05:37:40.199Z,101007.81
2022-07-25T05:40:08.988Z,100996.59
2022-07-25T05:42:36.958Z,101007.09
2022-07-25T05:45:05.532Z,101002.69
2022-07-25T05:47:33.493Z,101002.69
2022-07-25T05:50:02.213Z,100994.41
2022-07-25T05:52:31.630Z,100994.94
2022-07-25T05:54:59.538Z,100991.69
2022-07-25T05:57:27.601Z,100990.38
2022-07-25T05:59:55.510Z,100986.22
2022-07-25T06:02:23.622Z,100980.94
2022-07-25T06:04:51.697Z,100985.00
2022-07-25T06:07:19.637Z,100981.28
2022-07-25T06:09:48.960Z,100972.09
2022-07-25T06:12:16.994Z,100974.63
2022-07-25T06:14:45.386Z,100975.00
2022-07-25T06:17:13.712Z,100968.69
2022-07-25T06:19:41.719Z,100965.53
2022-07-25T06:22:11.271Z,100965.94
2022-07-25T06:24:39.684Z,100963.09
2022-07-25T06:27:09.747Z,100955.75
2022-07-25T06:29:39.381Z,100957.22
2022-07-25T06:32:07.736Z,100953.44
2022-07-25T06:34:35.818Z,100952.38
2022-07-25T06:37:04.046Z,100943.31
2022-07-25T06:39:32.027Z,100931.75
2022-07-25T06:42:00.966Z,100942.06
2022-07-25T06:44:36.514Z,100932.00
2022-07-25T06:47:05.701Z,100928.59
2022-07-25T06:49:33.619Z,100924.78
2022-07-25T06:52:01.552Z,100936.16
2022-07-25T06:54:29.500Z,100922.66
2022-07-25T06:56:57.611Z,100923.06
2022-07-25T06:59:26.173Z,100922.00
2022-07-25T07:01:55.689Z,100921.31
2022-07-25T07:04:23.632Z,100915.19
2022-07-25T07:06:51.595Z,100902.28
2022-07-25T07:09:19.516Z,100895.38
2022-07-25T07:11:47.497Z,100894.25
2022-07-25T07:14:15.405Z,100889.41
2022-07-25T07:16:43.415Z,100884.53
2022-07-25T07:19:14.571Z,100886.34
2022-07-25T07:21:43.726Z,100888.38
2022-07-25T07:24:23.399Z,100876.66
2022-07-25T07:26:52.651Z,100870.78
2022-07-25T07:29:20.626Z,100878.13
2022-07-25T07:31:48.676Z,100876.22
2022-07-25T07:34:18.173Z,100872.81
2022-07-25T07:36:46.128Z,100868.66
2022-07-25T07:39:14.671Z,100866.50
2022-07-25T07:41:42.588Z,100865.63
2022-07-25T07:44:10.562Z,100863.63
2022-07-25T07:46:38.643Z,100861.81
2022-07-25T07:49:06.936Z,100855.44
2022-07-25T07:51:36.511Z,100856.22
2022-07-25T07:54:25.040Z,100858.97
2022-07-25T07:56:52.993Z,100849.63
2022-07-25T07:59:22.142Z,100852.25
2022-07-25T08:01:50.115Z,100842.91
2022-07-25T08:04:18.147Z,100845.94
2022-07-25T08:06:47.504Z,100844.81
2022-07-25T08:09:15.527Z,100843.53
2022-07-25T08:11:43.439Z,100837.72
2022-07-25T08:14:11.365Z,100838.19
2022-07-25T08:16:39.369Z,100840.25
2022-07-25T08:19:07.488Z,100839.72
2022-07-25T08:21:35.559Z,100827.28
2022-07-25T08:24:05.873Z,100830.75
2022-07-25T08:26:37.047Z,100824.34
2022-07-25T08:29:18.689Z,100826.22
2022-07-25T08:31:47.559Z,100819.66
2022-07-25T08:34:15.695Z,100826.03
2022-07-25T08:36:44.298Z,100815.16
2022-07-25T08:39:18.629Z,100821.34
2022-07-25T08:41:46.934Z,100812.75
2022-07-25T08:44:16.972Z,100818.34
2022-07-25T08:46:46.673Z,100812.41
2022-07-25T08:49:15.439Z,100804.69
2022-07-25T08:51:43.901Z,100804.13
2022-07-25T08:54:12.081Z,100794.72
2022-07-25T08:56:43.627Z,100794.47
2022-07-25T08:59:11.778Z,100791.94
2022-07-25T09:01:41.399Z,100794.28
2022-07-25T09:04:12.177Z,100784.44
2022-07-25T09:06:50.861Z,100782.78
2022-07-25T09:09:19.707Z,100766.72
2022-07-25T09:11:51.078Z,100781.59
2022-07-25T09:14:22.374Z,100768.91
2022-07-25T09:16:50.773Z,100762.84
2022-07-25T09:19:22.862Z,100766.75
2022-07-25T09:22:03.617Z,100763.41
2022-07-25T09:24:38.266Z,100760.63
2022-07-25T09:27:13.914Z,100748.25
2022-07-25T09:29:43.806Z,100742.19
2022-07-25T09:32:19.425Z,100728.13
2022-07-25T09:34:49.337Z,100719.69
2022-07-25T09:37:26.371Z,100725.16
2022-07-25T09:39:56.633Z,100718.84
2022-07-25T09:42:30.588Z,100710.38
2022-07-25T09:45:00.538Z,100699.78
2022-07-25T09:47:29.030Z,100709.63
2022-07-25T09:49:57.888Z,100695.41
2022-07-25T09:52:26.142Z,100687.72
2022-07-25T09:54:55.584Z,100698.44
2022-07-25T09:57:27.097Z,100688.38
2022-07-25T09:59:56.546Z,100688.38
2022-07-25T10:02:39.190Z,100679.44
2022-07-25T10:05:15.150Z,100681.06
2022-07-25T10:07:47.589Z,100685.38
2022-07-25T10:10:30.940Z,100670.81
2022-07-25T10:13:09.885Z,100664.53
2022-07-25T10:15:45.513Z,100647.81
2022-07-25T10:18:14.620Z,100662.72
2022-07-25T10:20:43.075Z,100662.53
2022-07-25T10:23:25.648Z,100657.94
2022-07-25T10:26:04.813Z,100650.31
2022-07-25T10:28:44.765Z,100652.44
2022-07-25T10:31:21.708Z,100643.38
2022-07-25T10:33:52.863Z,100640.97
2022-07-25T10:36:21.640Z,100629.16
2022-07-25T10:38:52.671Z,100633.03
2022-07-25T10:41:26.025Z,100620.72
2022-07-25T10:44:00.743Z,100629.94
2022-07-25T10:46:32.563Z,100625.50
2022-07-25T10:49:02.852Z,100614.03
2022-07-25T10:51:35.107Z,100608.97
2022-07-25T10:54:17.384Z,100596.25
2022-07-25T10:56:54.640Z,100593.41
2022-07-25T10:59:31.132Z,100592.47
2022-07-25T11:02:01.290Z,100588.69
2022-07-25T11:04:30.477Z,100578.84
2022-07-25T11:07:12.593Z,100572.56
2022-07-25T11:09:41.677Z,100577.44
2022-07-25T11:12:10.794Z,100571.91
2022-07-25T11:14:41.439Z,100578.03
2022-07-25T11:17:16.372Z,100574.41
2022-07-25T11:19:46.472Z,100571.19
2022-07-25T11:22:14.454Z,100571.13
2022-07-25T11:24:44.452Z,100572.72
2022-07-25T11:27:15.373Z,100556.94
2022-07-25T11:29:43.451Z,100551.16
2022-07-25T11:32:13.246Z,100557.75
2022-07-25T11:34:45.174Z,100552.91
2022-07-25T11:37:14.687Z,100559.84
2022-07-25T11:39:44.566Z,100543.25
2022-07-25T11:42:16.351Z,100530.66
2022-07-25T11:44:48.068Z,100529.56
2022-07-25T11:47:32.192Z,100532.31
2022-07-25T11:50:05.279Z,100527.94
2022-07-25T11:52:34.730Z,100528.13
2022-07-25T11:55:04.440Z,100524.28
2022-07-25T11:57:34.905Z,100521.03
2022-07-25T12:00:03.671Z,100519.69
2022-07-25T12:02:40.850Z,100517.06
2022-07-25T12:05:12.493Z,100513.25
2022-07-25T12:07:44.851Z,100515.44
2022-07-25T12:10:17.449Z,100509.72
2022-07-25T12:12:46.387Z,100503.13
2022-07-25T12:15:15.270Z,100489.91
2022-07-25T12:17:44.444Z,100491.38
2022-07-25T12:20:17.420Z,100487.69
2022-07-25T12:22:46.112Z,100473.41
2022-07-25T12:25:14.940Z,100472.91
2022-07-25T12:27:43.116Z,100462.13
2022-07-25T12:30:13.057Z,100456.16
2022-07-25T12:32:41.623Z,100456.22
2022-07-25T12:35:12.739Z,100455.25
2022-07-25T12:37:43.937Z,100455.38
2022-07-25T12:40:14.270Z,100452.81
2022-07-25T12:42:43.089Z,100457.22
2022-07-25T12:45:12.383Z,100454.91
2022-07-25T12:47:41.220Z,100447.91
2022-07-25T12:50:11.026Z,100437.31
2022-07-25T12:52:39.533Z,100439.50
2022-07-25T12:55:11.461Z,100442.69
2022-07-25T12:57:40.259Z,100439.91
2022-07-25T13:00:11.085Z,100432.09
2022-07-25T13:02:39.792Z,100437.31
2022-07-25T13:05:09.135Z,100443.97
2022-07-25T13:07:37.457Z,100437.56
2022-07-25T13:10:07.379Z,100431.84
2022-07-25T13:12:36.905Z,100422.31
2022-07-25T13:15:05.852Z,100413.72
2022-07-25T13:17:34.365Z,100414.78
2022-07-25T13:20:02.948Z,100410.69
2022-07-25T13:22:31.203Z,100419.88
2022-07-25T13:24:59.116Z,100406.47
2022-07-25T13:27:27.291Z,100397.75
2022-07-25T13:29:58.102Z,100405.16
2022-07-25T13:32:28.397Z,100389.81
2022-07-25T13:34:56.655Z,100389.78
2022-07-25T13:37:24.646Z,100393.19
2022-07-25T13:39:52.920Z,100388.91
2022-07-25T13:42:20.966Z,100387.81
2022-07-25T13:44:49.107Z,100367.50
2022-07-25T13:47:18.654Z,100378.72
2022-07-25T13:49:46.745Z,100371.25
2022-07-25T13:52:14.729Z,100365.97
2022-07-25T13:54:42.795Z,100369.09
2022-07-25T13:57:11.200Z,100357.00
2022-07-25T13:59:39.599Z,100356.25
2022-07-25T14:02:07.962Z,100344.44
2022-07-25T14:04:37.833Z,100348.75
2022-07-25T14:07:07.339Z,100345.56
2022-07-25T14:09:35.732Z,100348.22
2022-07-25T14:12:03.731Z,100356.41
2022-07-25T14:14:31.720Z,100341.19
2022-07-25T14:16:59.778Z,100334.47
2022-07-25T14:19:27.706Z,100328.31
2022-07-25T14:21:57.050Z,100326.34
2022-07-25T14:24:24.979Z,100319.00
2022-07-25T14:26:54.010Z,100314.56
2022-07-25T14:29:25.952Z,100318.53
2022-07-25T14:31:57.004Z,100318.72
2022-07-25T14:34:25.034Z,100329.38
2022-07-25T14:36:53.020Z,100319.22
2022-07-25T14:39:22.336Z,100321.25
2022-07-25T14:41:50.407Z,100324.06
2022-07-25T14:44:18.615Z,100318.41
2022-07-25T14:46:49.019Z,100304.53
2022-07-25T14:49:17.661Z,100312.63
2022-07-25T14:51:46.124Z,100305.47
2022-07-25T14:54:14.684Z,100305.91
2022-07-25T14:56:44.427Z,100303.03
2022-07-25T14:59:12.910Z,100301.31
2022-07-25T15:01:41.242Z,100295.38
2022-07-25T15:04:09.483Z,100278.66
2022-07-25T15:06:37.516Z,100284.63
2022-07-25T15:09:05.859Z,100274.09
2022-07-25T15:11:34.073Z,100274.69
2022-07-25T15:14:03.364Z,100268.16
2022-07-25T15:16:31.433Z,100271.06
2022-07-25T15:19:15.927Z,100261.69
2022-07-25T15:21:44.716Z,100261.38
2022-07-25T15:24:12.867Z,100253.16
2022-07-25T15:26:41.124Z,100251.28
2022-07-25T15:29:11.989Z,100237.69
2022-07-25T15:31:40.376Z,100232.16
2022-07-25T15:34:08.686Z,100239.09
2022-07-25T15:36:36.694Z,100228.75
2022-07-25T15:39:05.179Z,100224.16
2022-07-25T15:41:33.409Z,100219.44
2022-07-25T15:44:01.631Z,100212.88
2022-07-25T15:46:31.221Z,100205.50
2022-07-25T15:48:59.328Z,100201.75
2022-07-25T15:51:27.354Z,100192.03
2022-07-25T15:53:55.260Z,100193.47
2022-07-25T15:56:23.989Z,100182.31
2022-07-25T15:58:52.315Z,100185.34
2022-07-25T16:01:20.374Z,100189.13
2022-07-25T16:03:49.940Z,100182.81
2022-07-25T16:06:20.713Z,100178.28
2022-07-25T16:08:50.119Z,100157.81
2022-07-25T16:11:24.886Z,100177.06
2022-07-25T16:13:52.764Z,100168.28
2022-07-25T16:16:22.052Z,100164.06
2022-07-25T16:18:52.032Z,100155.06
2022-07-25T16:21:19.944Z,100155.94
2022-07-25T16:23:48.114Z,100160.47
2022-07-25T16:26:16.135Z,100154.38
2022-07-25T16:28:45.320Z,100153.81
2022-07-25T16:31:13.400Z,100147.09
2022-07-25T16:33:41.309Z,100146.88
2022-07-25T16:36:12.199Z,100134.06
2022-07-25T16:38:40.598Z,100143.81
2022-07-25T16:41:08.647Z,100145.69
2022-07-25T16:43:36.638Z,100139.91
2022-07-25T16:46:04.711Z,100154.72
2022-07-25T16:48:32.890Z,100167.50
2022-07-25T16:51:00.993Z,100190.34
2022-07-25T16:53:30.341Z,100261.81
2022-07-25T16:55:58.530Z,100262.00
2022-07-25T16:58:27.002Z,100266.19
2022-07-25T17:00:55.070Z,100263.13
2022-07-25T17:03:23.132Z,100263.00
2022-07-25T17:05:51.758Z,100242.75
2022-07-25T17:08:19.854Z,100268.59
2022-07-25T17:10:49.377Z,100258.59
2022-07-25T17:13:17.365Z,100253.88
2022-07-25T17:15:45.571Z,100253.28
2022-07-25T17:18:14.157Z,100259.28
2022-07-25T17:20:42.104Z,100263.09
2022-07-25T17:23:10.047Z,100298.53
2022-07-25T17:25:38.367Z,100315.06
2022-07-25T17:28:07.998Z,100335.97
2022-07-25T17:30:36.217Z,100344.47
2022-07-25T17:33:04.238Z,100340.72
2022-07-25T17:35:33.069Z,100320.72
2022-07-25T17:38:01.043Z,100341.00
2022-07-25T17:40:29.068Z,100352.72
2022-07-25T17:42:57.655Z,100334.34
2022-07-25T17:45:27.322Z,100343.09
2022-07-25T17:47:55.351Z,100359.94
2022-07-25T17:50:29.169Z,100375.94
2022-07-25T17:52:59.489Z,100373.34
2022-07-25T17:55:28.722Z,100365.59
2022-07-25T17:57:59.503Z,100361.28
2022-07-25T18:00:28.943Z,100378.75
2022-07-25T18:02:56.951Z,100405.63
2022-07-25T18:05:25.107Z,100392.41
2022-07-25T18:07:53.894Z,100367.63
2022-07-25T18:10:22.571Z,100350.47
2022-07-25T18:12:51.221Z,100357.47
2022-07-25T18:15:19.354Z,100381.06
2022-07-25T18:17:49.604Z,100374.09
2022-07-25T18:20:20.431Z,100363.88
2022-07-25T18:22:48.423Z,100351.38
2022-07-25T18:25:17.085Z,100371.22
2022-07-25T18:27:46.616Z,100363.13
2022-07-25T18:30:16.821Z,100362.94
2022-07-25T18:32:45.640Z,100370.50
2022-07-25T18:35:15.163Z,100370.88
2022-07-25T18:37:43.796Z,100366.91
2022-07-25T18:40:13.587Z,100355.31
2022-07-25T18:42:41.794Z,100359.94
2022-07-25T18:45:11.358Z,100348.94
2022-07-25T18:47:40.300Z,100347.34
2022-07-25T18:50:09.151Z,100357.19
2022-07-25T18:52:38.779Z,100367.03
2022-07-25T18:55:09.843Z,100360.53
2022-07-25T18:57:38.031Z,100358.38
2022-07-25T19:00:07.432Z,100345.63
2022-07-25T19:02:35.424Z,100349.81
2022-07-25T19:05:03.456Z,100354.00
2022-07-25T19:07:31.456Z,100359.34
2022-07-25T19:10:00.775Z,100346.66
2022-07-25T19:12:28.888Z,100348.22
2022-07-25T19:14:57.313Z,100348.25
2022-07-25T19:17:25.325Z,100339.84
2022-07-25T19:19:53.676Z,100356.22
2022-07-25T19:22:21.995Z,100351.00
2022-07-25T19:24:49.984Z,100352.75
2022-07-25T19:27:19.779Z,100352.47
2022-07-25T19:29:47.829Z,100359.50
2022-07-25T19:32:16.116Z,100362.81
2022-07-25T19:34:46.082Z,100365.47
2022-07-25T19:37:14.163Z,100368.00
2022-07-25T19:39:42.063Z,100373.47
2022-07-25T19:42:12.215Z,100363.19
2022-07-25T19:44:41.641Z,100366.16
2022-07-25T19:47:11.828Z,100371.09
2022-07-25T19:49:40.636Z,100384.59
2022-07-25T19:52:09.420Z,100482.44
2022-07-25T19:54:37.521Z,100462.75
2022-07-25T19:57:05.793Z,100463.19
2022-07-25T19:59:33.832Z,100440.00
2022-07-25T20:02:03.773Z,100445.78
2022-07-25T20:04:31.977Z,100437.81
2022-07-25T20:07:02.219Z,100432.47
2022-07-25T20:09:30.390Z,100434.88
2022-07-25T20:11:58.810Z,100437.84
2022-07-25T20:14:27.076Z,100427.19
2022-07-25T20:16:55.195Z,100442.81
2022-07-25T20:19:25.367Z,100438.94
2022-07-25T20:21:53.520Z,100440.72
2022-07-25T20:24:21.952Z,100457.41
2022-07-25T20:26:50.261Z,100457.16
2022-07-25T20:29:18.286Z,100465.56
2022-07-25T20:31:46.332Z,100481.00
2022-07-25T20:34:14.625Z,100487.78
2022-07-25T20:36:44.107Z,100499.69
2022-07-25T20:39:13.218Z,100497.25
2022-07-25T20:41:41.814Z,100506.56
2022-07-25T20:44:13.214Z,100523.09
2022-07-25T20:46:41.352Z,100511.19
2022-07-25T20:49:10.754Z,100534.09
2022-07-25T20:51:40.857Z,100541.59
2022-07-25T20:54:10.614Z,100547.28
2022-07-25T20:56:38.578Z,100552.78
2022-07-25T20:59:06.966Z,100563.13
2022-07-25T21:01:35.447Z,100576.34
2022-07-25T21:04:07.447Z,100575.13
2022-07-25T21:06:36.737Z,100581.06
2022-07-25T21:09:05.859Z,100587.53
2022-07-25T21:11:35.964Z,100601.72
2022-07-25T21:14:04.494Z,100581.22
2022-07-25T21:16:33.455Z,100574.91
2022-07-25T21:19:01.492Z,100578.22
2022-07-25T21:21:29.490Z,100589.72
2022-07-25T21:23:57.614Z,100594.34
2022-07-25T21:26:25.563Z,100580.84
2022-07-25T21:28:54.866Z,100594.03
2022-07-25T21:31:23.557Z,100610.88
2022-07-25T21:33:51.703Z,100622.25
2022-07-25T21:36:19.642Z,100638.94
2022-07-25T21:38:47.589Z,100652.25
2022-07-25T21:41:16.012Z,100675.69
2022-07-25T21:43:44.211Z,100684.69
2022-07-25T21:46:13.647Z,100704.53
2022-07-25T21:48:59.188Z,100701.16
2022-07-25T21:51:30.413Z,100672.66
2022-07-25T21:54:08.761Z,100670.00
2022-07-25T21:56:36.763Z,100679.41
2022-07-25T21:59:05.401Z,100668.88
2022-07-25T22:01:35.035Z,100663.41
2022-07-25T22:04:03.170Z,100665.53
2022-07-25T22:06:31.205Z,100644.94
2022-07-25T22:08:59.216Z,100656.69
2022-07-25T22:11:42.892Z,100648.28
2022-07-25T22:14:14.489Z,100647.00
2022-07-25T22:16:44.155Z,100638.63
2022-07-25T22:19:12.167Z,100643.22
2022-07-25T22:21:40.556Z,100640.72
2022-07-25T22:24:09.471Z,100645.97
2022-07-25T22:26:37.722Z,100654.56
2022-07-25T22:29:06.127Z,100669.16
2022-07-25T22:31:34.401Z,100672.94
2022-07-25T22:34:03.815Z,100675.09
2022-07-25T22:36:31.768Z,100682.38
2022-07-25T22:38:59.720Z,100668.63
2022-07-25T22:41:27.879Z,100654.81
2022-07-25T22:43:58.830Z,100653.09
2022-07-25T22:46:28.525Z,100656.38
2022-07-25T22:48:57.471Z,100652.25
2022-07-25T22:51:27.479Z,100651.78
2022-07-25T22:53:55.746Z,100656.59
2022-07-25T22:56:24.064Z,100674.25
2022-07-25T22:58:52.033Z,100672.88
2022-07-25T23:01:20.468Z,100671.31
2022-07-25T23:03:50.395Z,100681.19
2022-07-25T23:06:19.249Z,100678.25
2022-07-25T23:08:48.999Z,100686.88
2022-07-25T23:11:17.426Z,100699.94
2022-07-25T23:13:45.413Z,100701.69
2022-07-25T23:16:13.374Z,100700.44
2022-07-25T23:18:41.488Z,100712.53
2022-07-25T23:21:09.528Z,100707.47
2022-07-25T23:23:37.563Z,100695.84
2022-07-25T23:26:07.023Z,100694.78
2022-07-25T23:28:35.053Z,100710.06
2022-07-25T23:31:03.208Z,100724.41
2022-07-25T23:33:31.839Z,100733.91
2022-07-25T23:36:00.272Z,100737.66
2022-07-25T23:38:28.451Z,100737.41
2022-07-25T23:40:56.566Z,100737.75
2022-07-25T23:43:53.053Z,100737.88
2022-07-25T23:46:14.059Z,100739.66
2022-07-25T23:48:43.144Z,100760.69
2022-07-25T23:51:11.254Z,100791.13
2022-07-25T23:53:39.260Z,100760.34
2022-07-25T23:56:07.405Z,100746.31
2022-07-25T23:58:36.668Z,100754.91
